Latest Weather Observations for Laverton

IDW60801

Issued at 12:32 pm WST Monday 31 August 2015 (issued every 30 minutes, with the page automatically refreshed every 10 minutes)

About weather observations | Map of weather stations | Latest weather observations for WA | Other Formats
Station Details ID: 012305 Name: LAVERTON AERO Lat: -28.61 Lon: 122.42 Height: 464.3 m
Data from the previous 72 hours. | See also: Recent months at Laverton
Date/Time
WST
Temp
°C
App
Temp
°C
Dew
Point
Rel
Hum
%
Delta-T
°C
Wind Press
QNH
hPa
Press
MSL
hPa
Rain
since 9 am
mm
Dir
 
Spd
km/h
Gust
km/h
Spd
kts
Gust
kts
31/12:30pm 22.1 17.9 3.7 30 9.1 W 15 22 8 12 1016.0 1015.5 0.0
31/12:00pm 23.6 20.7 4.5 29 9.7 SW 9 26 5 14 1016.6 1016.0 0.0
31/11:30am 21.9 18.1 4.0 31 8.9 NNW 13 28 7 15 1017.2 1016.6 0.0
31/11:00am 21.7 18.7 7.5 40 7.5 ENE 13 20 7 11 1017.7 1017.2 0.0
31/10:30am 20.6 17.8 8.6 46 6.4 ENE 13 24 7 13 1018.3 1017.8 0.0
31/10:00am 18.7 15.9 8.4 51 5.4 NE 13 20 7 11 1018.8 1018.2 0.0
31/09:30am 17.8 14.2 8.4 54 4.9 ENE 17 24 9 13 1019.1 1018.5 0.0
31/09:00am 16.8 12.9 8.5 58 4.3 ENE 19 24 10 13 1019.6 1019.1 0.0
31/08:30am 15.7 11.5 8.4 62 3.8 E 20 28 11 15 1019.6 1019.1 0.0
31/08:00am 14.8 9.1 8.3 65 3.3 ENE 28 39 15 21 1019.2 1018.6 0.0
31/07:30am 13.9 8.2 8.5 70 2.8 ENE 28 39 15 21 1018.9 1018.3 0.0
31/07:00am 12.9 8.5 9.0 77 2.0 E 22 28 12 15 1018.9 1018.3 0.0
31/06:30am 12.2 8.1 8.7 79 1.8 E 20 26 11 14 1018.8 1018.2 0.0
31/06:00am 12.3 8.2 8.8 79 1.8 E 20 28 11 15 1018.4 1017.9 0.0
31/05:30am 12.6 8.5 8.7 77 2.0 E 20 28 11 15 1018.4 1017.9 0.0
31/05:00am 13.0 8.9 8.7 75 2.2 E 20 30 11 16 1018.4 1017.9 0.0
31/04:30am 13.6 8.8 8.7 72 2.5 E 24 30 13 16 1018.2 1017.7 0.0
31/04:00am 14.2 10.0 8.2 67 3.1 ESE 20 26 11 14 1018.2 1017.7 0.0
31/03:30am 14.6 10.6 8.1 65 3.3 ESE 19 24 10 13 1018.3 1017.8 0.0
31/03:00am 14.9 11.2 7.9 63 3.6 ESE 17 24 9 13 1018.4 1017.9 0.0
31/02:30am 15.2 10.9 8.0 62 3.7 SE 20 26 11 14 1018.4 1017.9 0.0
31/02:00am 15.3 11.9 7.8 61 3.8 SE 15 20 8 11 1018.8 1018.2 0.0
31/01:30am 15.6 11.5 7.9 60 4.0 SE 19 24 10 13 1019.0 1018.4 0.0
31/01:00am 15.4 12.3 7.4 59 4.1 SE 13 17 7 9 1019.2 1018.6 0.0
31/12:30am 15.4 11.9 7.2 58 4.1 SE 15 19 8 10 1019.3 1018.7 0.0
31/12:00am 15.3 12.1 6.8 57 4.3 SE 13 17 7 9 1019.4 1018.8 0.0
 
Date/Time
WST
Temp
°C
App
Temp
°C
Dew
Point
Rel
Hum
%
Delta-T
°C
Wind Press
QNH
hPa
Press
MSL
hPa
Rain
since 9 am
mm
Dir
 
Spd
km/h
Gust
km/h
Spd
kts
Gust
kts
30/11:30pm 15.7 12.5 7.0 56 4.4 SSE 13 17 7 9 1019.4 1018.8 0.0
30/11:00pm 16.0 12.3 6.4 53 4.8 SSE 15 20 8 11 1019.5 1018.9 0.0
30/10:30pm 16.7 13.4 6.2 50 5.3 SSE 13 17 7 9 1019.5 1018.9 0.0
30/10:00pm 17.3 13.4 5.3 45 5.9 S 15 19 8 10 1019.5 1018.9 0.0
30/09:30pm 14.4 11.8 3.2 47 5.2 E 6 6 3 3 1019.5 1018.9 0.0
30/09:00pm 16.0 13.5 3.8 44 5.8 SSE 6 7 3 4 1019.5 1018.9 0.0
30/08:30pm 17.5 14.8 3.8 40 6.6 S 7 7 4 4 1019.5 1018.9 0.0
30/08:00pm 18.6 16.1 3.6 37 7.2 SSW 6 7 3 4 1019.5 1018.9 0.0
30/07:30pm 19.9 16.8 3.6 34 7.9 SSW 9 13 5 7 1019.2 1018.6 0.0
30/07:00pm 20.9 16.7 3.6 32 8.4 SW 15 17 8 9 1018.9 1018.3 0.0
30/06:30pm 21.3 17.5 4.0 32 8.6 WSW 13 17 7 9 1018.5 1018.0 0.0
30/06:00pm 21.4 17.3 4.5 33 8.4 WSW 15 20 8 11 1018.2 1017.7 0.0
30/05:30pm 22.1 18.0 4.6 32 8.8 SW 15 20 8 11 1018.0 1017.5 0.0
30/05:00pm 22.9 19.3 4.9 31 9.1 SW 13 17 7 9 1017.7 1017.2 0.0
30/04:30pm 23.1 18.7 4.6 30 9.4 WSW 17 22 9 12 1017.5 1016.9 0.0
30/04:00pm 23.6 19.2 5.0 30 9.5 W 17 26 9 14 1017.3 1016.7 0.0
30/03:30pm 23.5 18.2 4.9 30 9.5 WSW 22 32 12 17 1017.1 1016.5 0.0
30/03:00pm 23.9 20.0 5.3 30 9.6 SW 15 22 8 12 1017.1 1016.5 0.0
30/02:30pm 23.7 19.6 6.0 32 9.2 WSW 17 26 9 14 1017.2 1016.6 0.0
30/02:00pm 22.7 19.3 7.7 38 8.0 S 15 28 8 15 1017.3 1016.7 0.0
30/01:30pm 22.4 19.5 8.1 40 7.7 SW 13 20 7 11 1017.5 1016.9 0.0
30/01:00pm 23.0 19.4 8.3 39 7.9 SSW 17 26 9 14 1017.7 1017.2 0.0
30/12:30pm 22.5 18.8 7.9 39 7.8 SW 17 24 9 13 1018.0 1017.5 0.0
30/12:00pm 21.4 17.7 8.0 42 7.1 SSW 17 26 9 14 1018.5 1018.0 0.0
30/11:30am 21.9 18.4 8.8 43 7.1 SW 17 28 9 15 1019.0 1018.4 0.0
30/11:00am 21.2 17.7 8.8 45 6.7 SSW 17 24 9 13 1019.3 1018.7 0.0
30/10:30am 20.5 16.4 8.5 46 6.4 SSW 20 28 11 15 1019.4 1018.8 0.0
30/10:00am 20.9 17.3 9.8 49 6.1 SSW 19 30 10 16 1019.5 1018.9 0.0
30/09:30am 19.6 15.6 9.2 51 5.6 SSW 20 28 11 15 1019.4 1018.8 0.0
30/09:00am 19.1 15.2 9.6 54 5.1 SSW 20 26 11 14 1019.5 1018.9 0.2
30/08:30am 18.1 14.3 9.2 56 4.8 SSW 19 24 10 13 1019.5 1018.9 0.2
30/08:00am 17.3 13.8 8.7 57 4.5 SSW 17 24 9 13 1019.4 1018.8 0.2
30/07:30am 15.0 13.3 7.5 61 3.8 SW 6 11 3 6 1019.1 1018.5 0.2
30/07:00am 12.7 11.8 6.1 64 3.2 CALM 0 0 0 0 1018.8 1018.2 0.2
30/06:30am 9.8 8.0 5.2 73 2.1 N 4 7 2 4 1018.1 1017.6 0.2
30/06:00am 10.0 8.9 5.0 71 2.3 CALM 0 0 0 0 1017.7 1017.2 0.2
30/05:30am 10.8 9.4 5.6 70 2.5 N 2 7 1 4 1017.3 1016.7 0.2
30/05:00am 11.6 10.6 5.5 66 2.9 CALM 0 0 0 0 1016.8 1016.2 0.2
30/04:30am 14.3 13.6 7.1 62 3.6 CALM 0 7 0 4 1016.2 1015.7 0.2
30/04:00am 12.6 11.3 5.8 63 3.3 SSE 2 7 1 4 1015.8 1015.2 0.2
30/03:30am 13.9 11.4 6.5 61 3.7 SSW 9 11 5 6 1015.4 1014.8 0.2
30/03:00am 13.2 11.8 5.6 60 3.7 SSW 2 7 1 4 1015.4 1014.8 0.2
30/02:30am 14.3 11.3 5.9 57 4.1 SW 11 13 6 7 1015.2 1014.6 0.2
30/02:00am 15.2 14.3 6.0 54 4.5 CALM 0 7 0 4 1015.1 1014.5 0.2
30/01:30am 14.6 11.6 4.0 49 5.0 WSW 9 13 5 7 1015.1 1014.5 0.2
30/01:00am 15.2 12.0 3.0 44 5.6 W 9 11 5 6 1014.9 1014.3 0.2
30/12:30am 16.1 12.0 2.5 40 6.3 WNW 13 17 7 9 1014.8 1014.2 0.2
30/12:00am 17.4 13.4 2.6 37 6.9 WNW 13 17 7 9 1014.6 1014.0 0.2
 
Date/Time
WST
Temp
°C
App
Temp
°C
Dew
Point
Rel
Hum
%
Delta-T
°C
Wind Press
QNH
hPa
Press
MSL
hPa
Rain
since 9 am
mm
Dir
 
Spd
km/h
Gust
km/h
Spd
kts
Gust
kts
29/11:30pm 18.0 13.8 1.9 34 7.5 NW 13 15 7 8 1014.5 1013.9 0.2
29/11:00pm 18.9 15.1 1.9 32 7.9 NW 11 13 6 7 1014.4 1013.8 0.2
29/10:30pm 20.0 16.2 1.9 30 8.5 NW 11 13 6 7 1014.5 1013.9 0.2
29/10:00pm 20.4 16.7 2.3 30 8.6 NNE 11 17 6 9 1014.4 1013.8 0.2
29/09:30pm 19.9 16.6 2.3 31 8.3 NNE 9 13 5 7 1014.3 1013.7 0.2
29/09:00pm 21.1 17.0 2.4 29 9.0 N 13 15 7 8 1014.2 1013.6 0.2
29/08:30pm 21.2 16.5 3.0 30 8.8 NNE 17 24 9 13 1014.0 1013.5 0.2
29/08:00pm 21.3 17.3 2.6 29 9.0 NNE 13 19 7 10 1013.6 1013.0 0.2
29/07:30pm 22.7 18.6 2.2 26 9.9 N 13 17 7 9 1013.5 1012.9 0.2
29/07:00pm 23.6 19.1 1.9 24 10.5 N 15 17 8 9 1013.2 1012.6 0.2
29/06:30pm 24.9 19.7 2.4 23 11.1 N 19 28 10 15 1013.1 1012.5 0.2
29/06:00pm 24.1 20.6 3.4 26 10.3 N 11 15 6 8 1012.7 1012.1 0.2
29/05:30pm 24.9 21.3 3.0 24 10.9 NNW 11 15 6 8 1012.4 1011.8 0.2
29/05:00pm 26.1 18.1 1.4 20 12.0 NW 33 70 18 38 1012.5 1011.9 0.2
29/04:55pm 26.2 19.6 2.2 21 11.9 NNW 26 70 14 38 1012.8 1012.2 0.2
29/04:30pm 25.4 19.2 4.5 26 10.7 NNW 26 69 14 37 1011.8 1011.2 0.2
29/04:22pm 27.6 20.7 0.4 17 13.2 NNW 26 54 14 29 1012.0 1011.3 0.0
29/04:00pm 28.3 22.5 0.1 16 13.6 NNW 20 30 11 16 1011.8 1011.2 0.0
29/03:40pm 27.0 20.3 3.5 22 12.0 NNW 28 52 15 28 1012.0 1011.3 0.0
29/03:30pm 28.0 21.3 -1.0 15 13.7 NW 24 33 13 18 1012.1 1011.4 0.0
29/03:00pm 28.4 22.4 -1.6 14 14.1 NNW 20 43 11 23 1012.2 1011.6 0.0
29/02:30pm 27.9 21.3 -0.2 16 13.5 NW 24 44 13 24 1012.5 1011.9 0.0
29/02:00pm 29.4 23.0 -1.9 13 14.7 NW 22 37 12 20 1012.5 1011.9 0.0
29/01:30pm 28.6 21.9 1.2 17 13.5 NNW 26 39 14 21 1012.9 1012.3 0.0
29/01:00pm 28.7 22.5 2.1 18 13.4 NNE 24 39 13 21 1013.3 1012.7 0.0
29/12:35pm 28.4 21.0 1.8 18 13.3 NNE 30 50 16 27 1013.8 1013.2 0.0
29/12:30pm 28.7 21.0 2.1 18 13.3 NNE 32 43 17 23 1013.8 1013.2 0.0
29/12:00pm 28.1 20.2 2.3 19 12.9 NNE 33 44 18 24 1014.7 1014.1 0.0
29/11:30am 27.2 19.8 1.6 19 12.6 NNE 30 44 16 24 1015.4 1014.8 0.0
29/11:00am 25.2 18.2 2.0 22 11.3 NNE 28 37 15 20 1016.2 1015.7 0.0
29/10:30am 23.7 16.4 2.5 25 10.4 NE 30 39 16 21 1016.9 1016.3 0.0
29/10:00am 22.8 16.2 2.3 26 9.9 NE 26 35 14 19 1017.2 1016.6 0.0
29/09:30am 21.9 14.5 2.1 27 9.5 NE 30 39 16 21 1017.4 1016.8 0.0
29/09:00am 21.9 14.5 2.1 27 9.5 NE 30 43 16 23 1017.4 1016.8 0.0
29/08:30am 20.1 14.4 2.9 32 8.3 NE 22 32 12 17 1018.0 1017.5 0.0
29/08:00am 17.3 11.1 2.1 36 7.0 NE 24 35 13 19 1017.6 1017.0 0.0
29/07:46am 16.9 9.9 2.1 37 6.8 NE 28 46 15 25 1017.6 1017.0 0.0
29/07:30am 16.7 10.0 1.6 36 6.9 NE 26 39 14 21 1017.2 1016.6 0.0
29/07:00am 15.8 12.8 1.9 39 6.3 S 7 9 4 5 1018.6 1018.1 0.0
29/06:30am 15.9 12.5 1.6 38 6.5 NE 9 13 5 7 1018.3 1017.8 0.0
29/06:00am 15.7 10.0 -0.5 33 7.0 ENE 19 24 10 13 1017.2 1016.6 0.0
29/05:30am 15.5 10.2 -0.7 33 7.0 ENE 17 24 9 13 1017.0 1016.4 0.0
29/05:00am 15.2 9.9 -0.9 33 6.9 ENE 17 20 9 11 1017.1 1016.5 0.0
29/04:30am 15.1 9.4 -1.0 33 6.8 ENE 19 22 10 12 1017.0 1016.4 0.0
29/04:00am 15.5 10.2 -0.7 33 6.9 E 17 19 9 10 1016.9 1016.3 0.0
29/03:30am 16.2 11.2 -0.9 31 7.4 E 15 19 8 10 1016.8 1016.2 0.0
29/03:00am 16.5 11.6 -0.7 31 7.4 E 15 19 8 10 1017.3 1016.7 0.0
29/02:30am 16.6 10.9 -0.6 31 7.5 ENE 19 26 10 14 1017.3 1016.7 0.0
29/02:00am 16.9 10.6 -0.8 30 7.7 ENE 22 28 12 15 1017.5 1016.9 0.0
29/01:30am 17.3 10.8 0.0 31 7.7 ENE 24 32 13 17 1017.6 1017.0 0.0
29/01:00am 18.1 12.0 0.3 30 8.0 NE 22 32 12 17 1018.1 1017.6 0.0
29/12:30am 18.7 12.2 0.3 29 8.3 NE 24 33 13 18 1018.2 1017.7 0.0
29/12:00am 18.5 12.4 0.6 30 8.1 ENE 22 32 12 17 1018.3 1017.8 0.0
 
Date/Time
WST
Temp
°C
App
Temp
°C
Dew
Point
Rel
Hum
%
Delta-T
°C
Wind Press
QNH
hPa
Press
MSL
hPa
Rain
since 9 am
mm
Dir
 
Spd
km/h
Gust
km/h
Spd
kts
Gust
kts
28/11:30pm 18.5 12.7 0.2 29 8.2 ENE 20 28 11 15 1018.4 1017.9 0.0
28/11:00pm 18.1 13.0 0.7 31 7.9 ENE 17 22 9 12 1018.8 1018.2 0.0
28/10:30pm 17.8 13.5 1.3 33 7.5 ENE 13 17 7 9 1019.0 1018.4 0.0
28/10:00pm 15.8 11.6 1.9 39 6.3 ENE 13 15 7 8 1019.3 1018.7 0.0
28/09:30pm 16.0 11.9 2.1 39 6.4 E 13 15 7 8 1019.2 1018.6 0.0
28/09:00pm 15.5 10.6 2.0 40 6.1 E 17 19 9 10 1019.1 1018.5 0.0
28/08:30pm 15.3 10.8 2.1 41 6.0 ENE 15 15 8 8 1019.1 1018.5 0.0
28/08:00pm 15.9 11.4 2.0 39 6.3 ENE 15 15 8 8 1018.9 1018.3 0.0
28/07:30pm 16.6 12.5 2.2 38 6.6 ENE 13 15 7 8 1018.6 1018.1 0.0
28/07:00pm 17.8 14.1 2.2 35 7.2 ENE 11 13 6 7 1018.5 1018.0 0.0
28/06:30pm 19.0 14.9 2.4 33 7.8 ENE 13 13 7 7 1018.1 1017.6 0.0
28/06:00pm 20.8 17.9 2.6 30 8.7 ENE 7 9 4 5 1018.0 1017.5 0.0
28/05:30pm 22.4 19.1 2.5 27 9.6 NE 9 13 5 7 1017.8 1017.3 0.0
28/05:00pm 23.5 20.7 2.9 26 10.1 NE 7 7 4 4 1017.6 1017.0 0.0
28/04:30pm 23.4 20.1 2.3 25 10.3 N 9 13 5 7 1017.6 1017.0 0.0
28/04:00pm 23.6 20.6 1.9 24 10.5 N 7 11 4 6 1017.7 1017.2 0.0
28/03:30pm 24.1 20.6 1.1 22 11.0 NW 9 15 5 8 1017.8 1017.3 0.0
28/03:00pm 24.2 20.2 0.5 21 11.2 NNW 11 17 6 9 1017.7 1017.2 0.0
28/02:30pm 24.1 20.1 0.4 21 11.2 NNW 11 19 6 10 1017.8 1017.3 0.0
28/02:00pm 24.6 20.6 0.2 20 11.5 NW 11 20 6 11 1018.0 1017.5 0.0
28/01:30pm 24.4 20.7 0.0 20 11.4 NNE 9 17 5 9 1018.2 1017.7 0.0
28/01:00pm 24.4 20.3 0.0 20 11.4 N 11 17 6 9 1018.5 1018.0 0.0

Other Formats:

Comma delimited format used in spreadsheet applications
http://www.bom.gov.au/fwo/IDW60801/IDW60801.94449.axf

JavaScript Object Notation format (JSON) in row-major order
http://www.bom.gov.au/fwo/IDW60801/IDW60801.94449.json